sensor_id;sensor_type;location;lat;lon;timestamp;P1;durP1;ratioP1;P2;durP2;ratioP2
70547;SDS011;58099;43.406;3.698;2022-09-02T00:02:15;10.65;;;5.43;;
70547;SDS011;58099;43.406;3.698;2022-09-02T00:04:41;10.23;;;4.73;;
70547;SDS011;58099;43.406;3.698;2022-09-02T00:07:07;8.65;;;5.15;;
70547;SDS011;58099;43.406;3.698;2022-09-02T00:09:34;8.93;;;5.35;;
70547;SDS011;58099;43.406;3.698;2022-09-02T00:12:01;9.73;;;5.00;;
70547;SDS011;58099;43.406;3.698;2022-09-02T00:14:31;9.68;;;5.47;;
70547;SDS011;58099;43.406;3.698;2022-09-02T00:16:57;10.70;;;5.00;;
70547;SDS011;58099;43.406;3.698;2022-09-02T00:19:24;8.90;;;4.38;;
70547;SDS011;58099;43.406;3.698;2022-09-02T00:21:52;9.27;;;5.60;;
70547;SDS011;58099;43.406;3.698;2022-09-02T00:24:18;9.98;;;5.82;;
70547;SDS011;58099;43.406;3.698;2022-09-02T00:26:45;10.82;;;6.07;;
70547;SDS011;58099;43.406;3.698;2022-09-02T00:29:11;9.67;;;5.77;;
70547;SDS011;58099;43.406;3.698;2022-09-02T00:31:38;8.88;;;5.63;;
70547;SDS011;58099;43.406;3.698;2022-09-02T00:34:06;10.73;;;5.45;;
70547;SDS011;58099;43.406;3.698;2022-09-02T00:36:33;11.60;;;5.50;;
70547;SDS011;58099;43.406;3.698;2022-09-02T00:38:59;8.07;;;5.07;;
70547;SDS011;58099;43.406;3.698;2022-09-02T00:41:25;9.40;;;4.67;;
70547;SDS011;58099;43.406;3.698;2022-09-02T00:43:56;10.05;;;5.18;;
70547;SDS011;58099;43.406;3.698;2022-09-02T00:46:24;7.75;;;4.80;;
70547;SDS011;58099;43.406;3.698;2022-09-02T00:48:58;9.05;;;5.15;;
70547;SDS011;58099;43.406;3.698;2022-09-02T00:51:26;10.35;;;5.03;;
70547;SDS011;58099;43.406;3.698;2022-09-02T00:53:53;12.47;;;5.37;;
70547;SDS011;58099;43.406;3.698;2022-09-02T00:56:20;8.80;;;5.38;;
70547;SDS011;58099;43.406;3.698;2022-09-02T00:58:47;10.13;;;4.82;;
70547;SDS011;58099;43.406;3.698;2022-09-02T01:01:15;8.35;;;4.95;;
70547;SDS011;58099;43.406;3.698;2022-09-02T01:03:41;9.60;;;4.63;;
70547;SDS011;58099;43.406;3.698;2022-09-02T01:06:09;7.83;;;4.37;;
70547;SDS011;58099;43.406;3.698;2022-09-02T01:08:36;9.77;;;5.00;;
70547;SDS011;58099;43.406;3.698;2022-09-02T01:11:03;8.65;;;4.55;;
70547;SDS011;58099;43.406;3.698;2022-09-02T01:13:30;8.32;;;5.22;;
70547;SDS011;58099;43.406;3.698;2022-09-02T01:16:09;8.02;;;4.35;;
70547;SDS011;58099;43.406;3.698;2022-09-02T01:18:36;8.30;;;4.50;;
70547;SDS011;58099;43.406;3.698;2022-09-02T01:21:02;8.07;;;4.82;;
70547;SDS011;58099;43.406;3.698;2022-09-02T01:23:29;8.43;;;4.75;;
70547;SDS011;58099;43.406;3.698;2022-09-02T01:25:56;10.32;;;4.97;;
70547;SDS011;58099;43.406;3.698;2022-09-02T01:28:23;7.15;;;4.22;;
70547;SDS011;58099;43.406;3.698;2022-09-02T01:30:50;8.13;;;4.60;;
70547;SDS011;58099;43.406;3.698;2022-09-02T01:33:18;9.32;;;4.68;;
70547;SDS011;58099;43.406;3.698;2022-09-02T01:35:44;10.77;;;5.20;;
70547;SDS011;58099;43.406;3.698;2022-09-02T01:38:11;8.32;;;5.00;;
70547;SDS011;58099;43.406;3.698;2022-09-02T01:40:37;10.45;;;5.20;;
70547;SDS011;58099;43.406;3.698;2022-09-02T01:43:14;7.83;;;4.47;;
70547;SDS011;58099;43.406;3.698;2022-09-02T01:45:41;8.38;;;4.88;;
70547;SDS011;58099;43.406;3.698;2022-09-02T01:48:09;6.90;;;4.82;;
70547;SDS011;58099;43.406;3.698;2022-09-02T01:50:36;7.45;;;4.10;;
70547;SDS011;58099;43.406;3.698;2022-09-02T01:53:03;9.60;;;4.68;;
70547;SDS011;58099;43.406;3.698;2022-09-02T01:55:29;7.30;;;4.07;;
70547;SDS011;58099;43.406;3.698;2022-09-02T01:57:56;7.75;;;4.45;;
70547;SDS011;58099;43.406;3.698;2022-09-02T02:00:22;7.78;;;4.60;;
70547;SDS011;58099;43.406;3.698;2022-09-02T02:02:49;6.38;;;3.95;;
70547;SDS011;58099;43.406;3.698;2022-09-02T02:05:15;6.93;;;4.50;;
70547;SDS011;58099;43.406;3.698;2022-09-02T02:07:42;7.27;;;4.20;;
70547;SDS011;58099;43.406;3.698;2022-09-02T02:10:09;7.20;;;4.53;;
70547;SDS011;58099;43.406;3.698;2022-09-02T02:12:36;6.70;;;4.03;;
70547;SDS011;58099;43.406;3.698;2022-09-02T02:15:03;6.78;;;4.43;;
70547;SDS011;58099;43.406;3.698;2022-09-02T02:17:30;7.93;;;4.38;;
70547;SDS011;58099;43.406;3.698;2022-09-02T02:19:56;7.57;;;4.27;;
70547;SDS011;58099;43.406;3.698;2022-09-02T02:22:22;8.60;;;4.50;;
70547;SDS011;58099;43.406;3.698;2022-09-02T02:24:48;8.27;;;4.82;;
70547;SDS011;58099;43.406;3.698;2022-09-02T02:27:14;7.20;;;4.55;;
70547;SDS011;58099;43.406;3.698;2022-09-02T02:29:40;9.13;;;4.57;;
70547;SDS011;58099;43.406;3.698;2022-09-02T02:32:06;7.83;;;4.83;;
70547;SDS011;58099;43.406;3.698;2022-09-02T02:34:33;8.25;;;4.72;;
70547;SDS011;58099;43.406;3.698;2022-09-02T02:36:59;9.02;;;4.70;;
70547;SDS011;58099;43.406;3.698;2022-09-02T02:39:25;6.93;;;4.30;;
70547;SDS011;58099;43.406;3.698;2022-09-02T02:41:51;8.88;;;5.10;;
70547;SDS011;58099;43.406;3.698;2022-09-02T02:44:18;7.60;;;4.17;;
70547;SDS011;58099;43.406;3.698;2022-09-02T02:46:44;7.10;;;4.55;;
70547;SDS011;58099;43.406;3.698;2022-09-02T02:49:10;7.47;;;4.57;;
70547;SDS011;58099;43.406;3.698;2022-09-02T02:51:36;9.32;;;4.32;;
70547;SDS011;58099;43.406;3.698;2022-09-02T02:54:03;8.93;;;4.38;;
70547;SDS011;58099;43.406;3.698;2022-09-02T02:56:29;8.27;;;4.77;;
70547;SDS011;58099;43.406;3.698;2022-09-02T02:58:56;8.13;;;4.95;;
70547;SDS011;58099;43.406;3.698;2022-09-02T03:01:25;9.35;;;4.75;;
70547;SDS011;58099;43.406;3.698;2022-09-02T03:03:51;9.15;;;4.15;;
70547;SDS011;58099;43.406;3.698;2022-09-02T03:06:18;8.02;;;4.75;;
70547;SDS011;58099;43.406;3.698;2022-09-02T03:08:44;7.10;;;4.47;;
70547;SDS011;58099;43.406;3.698;2022-09-02T03:11:13;8.20;;;4.68;;
70547;SDS011;58099;43.406;3.698;2022-09-02T03:13:39;8.50;;;4.80;;
70547;SDS011;58099;43.406;3.698;2022-09-02T03:16:05;7.68;;;4.85;;
70547;SDS011;58099;43.406;3.698;2022-09-02T03:18:32;8.07;;;4.70;;
70547;SDS011;58099;43.406;3.698;2022-09-02T03:20:58;7.90;;;4.73;;
70547;SDS011;58099;43.406;3.698;2022-09-02T03:23:24;9.38;;;4.60;;
70547;SDS011;58099;43.406;3.698;2022-09-02T03:25:51;8.85;;;4.38;;
70547;SDS011;58099;43.406;3.698;2022-09-02T03:28:17;8.73;;;4.78;;
70547;SDS011;58099;43.406;3.698;2022-09-02T03:30:43;8.32;;;4.85;;
70547;SDS011;58099;43.406;3.698;2022-09-02T03:33:10;8.77;;;4.53;;
70547;SDS011;58099;43.406;3.698;2022-09-02T03:35:41;9.48;;;4.93;;
70547;SDS011;58099;43.406;3.698;2022-09-02T03:38:08;9.13;;;4.57;;
70547;SDS011;58099;43.406;3.698;2022-09-02T03:40:34;9.45;;;5.30;;
70547;SDS011;58099;43.406;3.698;2022-09-02T03:43:00;10.00;;;4.40;;
70547;SDS011;58099;43.406;3.698;2022-09-02T03:45:27;10.50;;;4.73;;
70547;SDS011;58099;43.406;3.698;2022-09-02T03:47:54;9.18;;;4.78;;
70547;SDS011;58099;43.406;3.698;2022-09-02T03:50:21;8.80;;;4.60;;
70547;SDS011;58099;43.406;3.698;2022-09-02T03:52:48;8.30;;;4.95;;
70547;SDS011;58099;43.406;3.698;2022-09-02T03:55:14;7.45;;;4.32;;
70547;SDS011;58099;43.406;3.698;2022-09-02T03:57:40;7.73;;;4.27;;
70547;SDS011;58099;43.406;3.698;2022-09-02T04:00:07;8.13;;;4.60;;
70547;SDS011;58099;43.406;3.698;2022-09-02T04:02:34;9.98;;;5.97;;
70547;SDS011;58099;43.406;3.698;2022-09-02T04:05:00;10.60;;;5.32;;
70547;SDS011;58099;43.406;3.698;2022-09-02T04:07:27;7.53;;;4.57;;
70547;SDS011;58099;43.406;3.698;2022-09-02T04:09:53;9.70;;;5.13;;
70547;SDS011;58099;43.406;3.698;2022-09-02T04:12:20;8.00;;;5.03;;
70547;SDS011;58099;43.406;3.698;2022-09-02T04:14:46;8.25;;;5.13;;
70547;SDS011;58099;43.406;3.698;2022-09-02T04:17:12;9.93;;;4.95;;
70547;SDS011;58099;43.406;3.698;2022-09-02T04:19:39;8.77;;;5.13;;
70547;SDS011;58099;43.406;3.698;2022-09-02T04:22:05;9.63;;;5.40;;
70547;SDS011;58099;43.406;3.698;2022-09-02T04:24:31;8.93;;;5.18;;
70547;SDS011;58099;43.406;3.698;2022-09-02T04:26:58;8.25;;;5.10;;
70547;SDS011;58099;43.406;3.698;2022-09-02T04:29:24;10.10;;;5.25;;
70547;SDS011;58099;43.406;3.698;2022-09-02T04:31:50;8.23;;;5.07;;
70547;SDS011;58099;43.406;3.698;2022-09-02T04:34:16;8.90;;;4.60;;
70547;SDS011;58099;43.406;3.698;2022-09-02T04:36:42;11.35;;;5.60;;
70547;SDS011;58099;43.406;3.698;2022-09-02T04:39:08;23.33;;;8.45;;
70547;SDS011;58099;43.406;3.698;2022-09-02T04:41:35;10.68;;;6.05;;
70547;SDS011;58099;43.406;3.698;2022-09-02T04:44:01;17.00;;;6.40;;
70547;SDS011;58099;43.406;3.698;2022-09-02T04:46:27;19.63;;;8.00;;
70547;SDS011;58099;43.406;3.698;2022-09-02T04:48:54;16.75;;;6.30;;
70547;SDS011;58099;43.406;3.698;2022-09-02T04:51:21;17.20;;;7.10;;
70547;SDS011;58099;43.406;3.698;2022-09-02T04:53:49;16.80;;;6.82;;
70547;SDS011;58099;43.406;3.698;2022-09-02T04:56:16;14.45;;;7.88;;
70547;SDS011;58099;43.406;3.698;2022-09-02T04:58:43;14.07;;;6.33;;
70547;SDS011;58099;43.406;3.698;2022-09-02T05:01:16;15.05;;;5.78;;
70547;SDS011;58099;43.406;3.698;2022-09-02T05:03:45;11.40;;;6.22;;
70547;SDS011;58099;43.406;3.698;2022-09-02T05:06:12;12.40;;;6.28;;
70547;SDS011;58099;43.406;3.698;2022-09-02T05:08:39;14.07;;;7.07;;
70547;SDS011;58099;43.406;3.698;2022-09-02T05:11:11;15.83;;;6.80;;
70547;SDS011;58099;43.406;3.698;2022-09-02T05:13:39;16.10;;;7.15;;
70547;SDS011;58099;43.406;3.698;2022-09-02T05:16:05;13.27;;;6.85;;
70547;SDS011;58099;43.406;3.698;2022-09-02T05:18:32;12.38;;;6.53;;
70547;SDS011;58099;43.406;3.698;2022-09-02T05:20:58;14.25;;;6.72;;
70547;SDS011;58099;43.406;3.698;2022-09-02T05:23:24;13.83;;;7.53;;
70547;SDS011;58099;43.406;3.698;2022-09-02T05:25:50;13.20;;;7.10;;
70547;SDS011;58099;43.406;3.698;2022-09-02T05:28:16;12.10;;;6.68;;
70547;SDS011;58099;43.406;3.698;2022-09-02T05:30:42;12.05;;;7.55;;
70547;SDS011;58099;43.406;3.698;2022-09-02T05:33:08;12.10;;;7.15;;
70547;SDS011;58099;43.406;3.698;2022-09-02T05:35:39;12.80;;;6.50;;
70547;SDS011;58099;43.406;3.698;2022-09-02T05:38:05;10.80;;;7.07;;
70547;SDS011;58099;43.406;3.698;2022-09-02T05:40:32;12.00;;;6.63;;
70547;SDS011;58099;43.406;3.698;2022-09-02T05:42:58;11.55;;;6.03;;
70547;SDS011;58099;43.406;3.698;2022-09-02T05:45:24;10.85;;;7.20;;
70547;SDS011;58099;43.406;3.698;2022-09-02T05:47:50;11.10;;;6.73;;
70547;SDS011;58099;43.406;3.698;2022-09-02T05:50:16;9.95;;;6.35;;
70547;SDS011;58099;43.406;3.698;2022-09-02T05:52:42;10.20;;;6.55;;
70547;SDS011;58099;43.406;3.698;2022-09-02T05:55:09;11.25;;;7.18;;
70547;SDS011;58099;43.406;3.698;2022-09-02T05:57:35;13.13;;;7.45;;
70547;SDS011;58099;43.406;3.698;2022-09-02T06:00:03;10.77;;;7.17;;
70547;SDS011;58099;43.406;3.698;2022-09-02T06:02:29;11.88;;;6.28;;
70547;SDS011;58099;43.406;3.698;2022-09-02T06:04:55;10.48;;;6.18;;
70547;SDS011;58099;43.406;3.698;2022-09-02T06:07:22;9.50;;;6.10;;
70547;SDS011;58099;43.406;3.698;2022-09-02T06:09:48;12.95;;;6.68;;
70547;SDS011;58099;43.406;3.698;2022-09-02T06:12:16;10.80;;;6.17;;
70547;SDS011;58099;43.406;3.698;2022-09-02T06:14:44;12.80;;;6.88;;
70547;SDS011;58099;43.406;3.698;2022-09-02T06:17:11;11.02;;;5.57;;
70547;SDS011;58099;43.406;3.698;2022-09-02T06:19:37;11.30;;;6.00;;
70547;SDS011;58099;43.406;3.698;2022-09-02T06:22:04;14.65;;;7.75;;
70547;SDS011;58099;43.406;3.698;2022-09-02T06:24:30;10.53;;;6.43;;
70547;SDS011;58099;43.406;3.698;2022-09-02T06:26:56;12.95;;;6.72;;
70547;SDS011;58099;43.406;3.698;2022-09-02T06:29:23;15.98;;;6.85;;
70547;SDS011;58099;43.406;3.698;2022-09-02T06:31:50;14.35;;;6.57;;
70547;SDS011;58099;43.406;3.698;2022-09-02T06:34:20;16.73;;;7.43;;
70547;SDS011;58099;43.406;3.698;2022-09-02T06:36:48;16.80;;;7.50;;
70547;SDS011;58099;43.406;3.698;2022-09-02T06:39:15;15.57;;;6.70;;
70547;SDS011;58099;43.406;3.698;2022-09-02T06:41:42;16.08;;;7.20;;
70547;SDS011;58099;43.406;3.698;2022-09-02T06:44:10;14.27;;;6.72;;
70547;SDS011;58099;43.406;3.698;2022-09-02T06:46:37;19.17;;;7.90;;
70547;SDS011;58099;43.406;3.698;2022-09-02T06:49:03;17.80;;;7.30;;
70547;SDS011;58099;43.406;3.698;2022-09-02T06:51:36;24.15;;;8.18;;
70547;SDS011;58099;43.406;3.698;2022-09-02T06:54:03;19.40;;;7.40;;
70547;SDS011;58099;43.406;3.698;2022-09-02T06:56:30;17.58;;;8.25;;
70547;SDS011;58099;43.406;3.698;2022-09-02T06:58:57;17.85;;;8.13;;
70547;SDS011;58099;43.406;3.698;2022-09-02T07:01:25;20.07;;;7.43;;
70547;SDS011;58099;43.406;3.698;2022-09-02T07:03:53;17.70;;;8.88;;
70547;SDS011;58099;43.406;3.698;2022-09-02T07:06:39;19.63;;;8.35;;
70547;SDS011;58099;43.406;3.698;2022-09-02T07:09:07;22.58;;;8.80;;
70547;SDS011;58099;43.406;3.698;2022-09-02T07:11:34;18.55;;;7.82;;
70547;SDS011;58099;43.406;3.698;2022-09-02T07:14:02;14.57;;;8.03;;
70547;SDS011;58099;43.406;3.698;2022-09-02T07:16:30;21.05;;;9.40;;
70547;SDS011;58099;43.406;3.698;2022-09-02T07:18:57;17.63;;;8.18;;
70547;SDS011;58099;43.406;3.698;2022-09-02T07:21:25;22.92;;;8.93;;
70547;SDS011;58099;43.406;3.698;2022-09-02T07:23:53;16.25;;;9.85;;
70547;SDS011;58099;43.406;3.698;2022-09-02T07:26:21;18.10;;;9.07;;
70547;SDS011;58099;43.406;3.698;2022-09-02T07:28:48;14.68;;;8.25;;
70547;SDS011;58099;43.406;3.698;2022-09-02T07:31:14;13.95;;;8.82;;
70547;SDS011;58099;43.406;3.698;2022-09-02T07:33:42;14.10;;;7.47;;
70547;SDS011;58099;43.406;3.698;2022-09-02T07:36:09;16.50;;;8.43;;
70547;SDS011;58099;43.406;3.698;2022-09-02T07:38:35;17.93;;;9.00;;
70547;SDS011;58099;43.406;3.698;2022-09-02T07:41:02;18.98;;;8.50;;
70547;SDS011;58099;43.406;3.698;2022-09-02T07:43:29;16.80;;;8.48;;
70547;SDS011;58099;43.406;3.698;2022-09-02T07:45:55;16.17;;;8.07;;
70547;SDS011;58099;43.406;3.698;2022-09-02T07:48:25;18.45;;;7.93;;
70547;SDS011;58099;43.406;3.698;2022-09-02T07:50:51;21.00;;;8.33;;
70547;SDS011;58099;43.406;3.698;2022-09-02T07:53:18;13.05;;;6.50;;
70547;SDS011;58099;43.406;3.698;2022-09-02T07:55:44;12.10;;;7.28;;
70547;SDS011;58099;43.406;3.698;2022-09-02T07:58:12;12.30;;;6.88;;
70547;SDS011;58099;43.406;3.698;2022-09-02T08:00:39;11.55;;;6.55;;
70547;SDS011;58099;43.406;3.698;2022-09-02T08:03:07;11.80;;;6.50;;
70547;SDS011;58099;43.406;3.698;2022-09-02T08:05:33;11.25;;;6.40;;
70547;SDS011;58099;43.406;3.698;2022-09-02T08:08:00;8.80;;;5.90;;
70547;SDS011;58099;43.406;3.698;2022-09-02T08:10:26;13.65;;;6.03;;
70547;SDS011;58099;43.406;3.698;2022-09-02T08:12:57;10.15;;;6.10;;
70547;SDS011;58099;43.406;3.698;2022-09-02T08:15:25;10.90;;;6.10;;
70547;SDS011;58099;43.406;3.698;2022-09-02T08:17:53;9.40;;;5.63;;
70547;SDS011;58099;43.406;3.698;2022-09-02T08:20:19;10.43;;;6.18;;
70547;SDS011;58099;43.406;3.698;2022-09-02T08:22:45;10.38;;;6.82;;
70547;SDS011;58099;43.406;3.698;2022-09-02T08:25:12;9.48;;;6.45;;
70547;SDS011;58099;43.406;3.698;2022-09-02T08:27:39;9.77;;;6.30;;
70547;SDS011;58099;43.406;3.698;2022-09-02T08:30:06;8.55;;;5.90;;
70547;SDS011;58099;43.406;3.698;2022-09-02T08:32:34;9.07;;;5.30;;
70547;SDS011;58099;43.406;3.698;2022-09-02T08:35:01;8.57;;;5.45;;
70547;SDS011;58099;43.406;3.698;2022-09-02T08:37:29;9.43;;;5.85;;
70547;SDS011;58099;43.406;3.698;2022-09-02T08:39:55;8.47;;;5.23;;
70547;SDS011;58099;43.406;3.698;2022-09-02T08:42:32;9.90;;;6.30;;
70547;SDS011;58099;43.406;3.698;2022-09-02T08:45:44;7.70;;;5.80;;
70547;SDS011;58099;43.406;3.698;2022-09-02T08:47:46;11.02;;;5.40;;
70547;SDS011;58099;43.406;3.698;2022-09-02T08:50:16;8.75;;;5.38;;
70547;SDS011;58099;43.406;3.698;2022-09-02T08:52:45;9.20;;;4.87;;
70547;SDS011;58099;43.406;3.698;2022-09-02T08:55:17;8.82;;;4.93;;
70547;SDS011;58099;43.406;3.698;2022-09-02T08:57:44;9.90;;;5.68;;
70547;SDS011;58099;43.406;3.698;2022-09-02T09:00:10;9.10;;;5.20;;
70547;SDS011;58099;43.406;3.698;2022-09-02T09:16:08;7.93;;;5.00;;
70547;SDS011;58099;43.406;3.698;2022-09-02T09:18:38;8.37;;;4.67;;
70547;SDS011;58099;43.406;3.698;2022-09-02T09:21:05;9.85;;;5.50;;
70547;SDS011;58099;43.406;3.698;2022-09-02T09:23:32;9.15;;;5.45;;
70547;SDS011;58099;43.406;3.698;2022-09-02T09:26:09;9.57;;;5.32;;
70547;SDS011;58099;43.406;3.698;2022-09-02T09:28:39;9.85;;;5.78;;
70547;SDS011;58099;43.406;3.698;2022-09-02T09:31:15;7.87;;;5.33;;
70547;SDS011;58099;43.406;3.698;2022-09-02T09:34:01;8.93;;;6.43;;
70547;SDS011;58099;43.406;3.698;2022-09-02T09:39:26;9.88;;;7.40;;
70547;SDS011;58099;43.406;3.698;2022-09-02T09:42:01;8.07;;;6.13;;
70547;SDS011;58099;43.406;3.698;2022-09-02T09:44:41;9.00;;;5.87;;
70547;SDS011;58099;43.406;3.698;2022-09-02T09:47:42;10.82;;;6.80;;
70547;SDS011;58099;43.406;3.698;2022-09-02T09:50:34;10.98;;;7.82;;
70547;SDS011;58099;43.406;3.698;2022-09-02T09:52:53;14.35;;;7.47;;
70547;SDS011;58099;43.406;3.698;2022-09-02T09:55:19;11.00;;;7.72;;
70547;SDS011;58099;43.406;3.698;2022-09-02T09:57:46;11.13;;;8.07;;
70547;SDS011;58099;43.406;3.698;2022-09-02T10:00:31;11.35;;;7.53;;
70547;SDS011;58099;43.406;3.698;2022-09-02T10:02:59;12.73;;;7.70;;
70547;SDS011;58099;43.406;3.698;2022-09-02T10:08:37;14.43;;;8.85;;
70547;SDS011;58099;43.406;3.698;2022-09-02T10:10:37;13.10;;;7.83;;
70547;SDS011;58099;43.406;3.698;2022-09-02T10:13:19;16.17;;;8.40;;
70547;SDS011;58099;43.406;3.698;2022-09-02T10:16:08;13.70;;;7.82;;
70547;SDS011;58099;43.406;3.698;2022-09-02T10:23:52;12.73;;;8.27;;
70547;SDS011;58099;43.406;3.698;2022-09-02T10:33:54;9.52;;;7.90;;
70547;SDS011;58099;43.406;3.698;2022-09-02T10:39:01;14.43;;;8.63;;
70547;SDS011;58099;43.406;3.698;2022-09-02T10:41:42;14.02;;;8.85;;
70547;SDS011;58099;43.406;3.698;2022-09-02T10:49:32;19.43;;;9.40;;
70547;SDS011;58099;43.406;3.698;2022-09-02T10:52:09;14.57;;;8.88;;
70547;SDS011;58099;43.406;3.698;2022-09-02T10:57:29;16.33;;;9.40;;
70547;SDS011;58099;43.406;3.698;2022-09-02T11:00:04;17.05;;;8.23;;
70547;SDS011;58099;43.406;3.698;2022-09-02T11:02:37;16.20;;;8.93;;
70547;SDS011;58099;43.406;3.698;2022-09-02T11:05:10;13.90;;;8.75;;
70547;SDS011;58099;43.406;3.698;2022-09-02T11:07:50;14.38;;;8.40;;
70547;SDS011;58099;43.406;3.698;2022-09-02T11:10:19;18.05;;;9.13;;
70547;SDS011;58099;43.406;3.698;2022-09-02T11:12:51;15.02;;;9.05;;
70547;SDS011;58099;43.406;3.698;2022-09-02T11:15:22;13.17;;;7.87;;
70547;SDS011;58099;43.406;3.698;2022-09-02T11:18:03;15.02;;;8.85;;
70547;SDS011;58099;43.406;3.698;2022-09-02T11:20:40;13.88;;;9.27;;
70547;SDS011;58099;43.406;3.698;2022-09-02T11:23:27;13.95;;;8.80;;
70547;SDS011;58099;43.406;3.698;2022-09-02T11:31:14;12.63;;;8.57;;
70547;SDS011;58099;43.406;3.698;2022-09-02T11:33:47;12.60;;;9.10;;
70547;SDS011;58099;43.406;3.698;2022-09-02T11:36:16;14.73;;;9.65;;
70547;SDS011;58099;43.406;3.698;2022-09-02T11:38:44;15.80;;;9.10;;
70547;SDS011;58099;43.406;3.698;2022-09-02T11:53:50;12.37;;;8.67;;
70547;SDS011;58099;43.406;3.698;2022-09-02T11:56:18;13.07;;;7.85;;
70547;SDS011;58099;43.406;3.698;2022-09-02T11:58:46;12.00;;;8.68;;
70547;SDS011;58099;43.406;3.698;2022-09-02T12:03:47;11.43;;;8.13;;
70547;SDS011;58099;43.406;3.698;2022-09-02T12:06:15;10.77;;;8.10;;
70547;SDS011;58099;43.406;3.698;2022-09-02T12:14:02;13.82;;;8.20;;
70547;SDS011;58099;43.406;3.698;2022-09-02T12:21:25;11.65;;;8.02;;
70547;SDS011;58099;43.406;3.698;2022-09-02T12:26:19;12.25;;;7.75;;
70547;SDS011;58099;43.406;3.698;2022-09-02T12:28:45;10.98;;;7.75;;
70547;SDS011;58099;43.406;3.698;2022-09-02T12:31:16;10.43;;;7.73;;
70547;SDS011;58099;43.406;3.698;2022-09-02T12:34:51;10.43;;;7.10;;
70547;SDS011;58099;43.406;3.698;2022-09-02T12:36:55;10.40;;;6.90;;
70547;SDS011;58099;43.406;3.698;2022-09-02T12:42:33;11.27;;;7.03;;
70547;SDS011;58099;43.406;3.698;2022-09-02T12:47:11;10.48;;;7.10;;
70547;SDS011;58099;43.406;3.698;2022-09-02T12:50:00;10.63;;;7.10;;
70547;SDS011;58099;43.406;3.698;2022-09-02T12:57:39;11.47;;;7.00;;
70547;SDS011;58099;43.406;3.698;2022-09-02T13:00:05;11.38;;;7.80;;
70547;SDS011;58099;43.406;3.698;2022-09-02T13:02:41;12.63;;;7.43;;
70547;SDS011;58099;43.406;3.698;2022-09-02T13:10:29;11.60;;;6.97;;
70547;SDS011;58099;43.406;3.698;2022-09-02T13:18:05;11.60;;;6.90;;
70547;SDS011;58099;43.406;3.698;2022-09-02T13:33:40;9.75;;;4.60;;
70547;SDS011;58099;43.406;3.698;2022-09-02T13:36:06;10.23;;;4.13;;
70547;SDS011;58099;43.406;3.698;2022-09-02T13:38:33;8.65;;;4.63;;
70547;SDS011;58099;43.406;3.698;2022-09-02T13:41:00;10.32;;;4.38;;
70547;SDS011;58099;43.406;3.698;2022-09-02T13:43:26;8.25;;;3.67;;
70547;SDS011;58099;43.406;3.698;2022-09-02T13:46:02;10.88;;;3.67;;
70547;SDS011;58099;43.406;3.698;2022-09-02T13:48:31;7.80;;;3.27;;
70547;SDS011;58099;43.406;3.698;2022-09-02T13:51:09;6.65;;;2.97;;
70547;SDS011;58099;43.406;3.698;2022-09-02T13:53:37;7.97;;;2.97;;
70547;SDS011;58099;43.406;3.698;2022-09-02T13:56:05;5.97;;;2.65;;
70547;SDS011;58099;43.406;3.698;2022-09-02T13:58:36;7.85;;;2.75;;
70547;SDS011;58099;43.406;3.698;2022-09-02T14:03:48;9.50;;;2.08;;
70547;SDS011;58099;43.406;3.698;2022-09-02T14:06:16;7.28;;;2.60;;
70547;SDS011;58099;43.406;3.698;2022-09-02T14:08:43;6.43;;;1.75;;
70547;SDS011;58099;43.406;3.698;2022-09-02T14:11:13;5.68;;;2.00;;
70547;SDS011;58099;43.406;3.698;2022-09-02T14:13:41;6.97;;;2.30;;
70547;SDS011;58099;43.406;3.698;2022-09-02T14:16:29;7.15;;;2.40;;
70547;SDS011;58099;43.406;3.698;2022-09-02T14:19:08;5.40;;;2.33;;
70547;SDS011;58099;43.406;3.698;2022-09-02T14:21:35;5.75;;;1.95;;
70547;SDS011;58099;43.406;3.698;2022-09-02T14:24:02;6.78;;;3.00;;
70547;SDS011;58099;43.406;3.698;2022-09-02T14:28:54;6.68;;;3.30;;
70547;SDS011;58099;43.406;3.698;2022-09-02T14:31:25;8.05;;;2.60;;
70547;SDS011;58099;43.406;3.698;2022-09-02T14:33:54;8.18;;;1.70;;
70547;SDS011;58099;43.406;3.698;2022-09-02T14:38:53;5.53;;;2.10;;
70547;SDS011;58099;43.406;3.698;2022-09-02T14:43:53;7.35;;;2.45;;
70547;SDS011;58099;43.406;3.698;2022-09-02T14:46:24;9.23;;;2.72;;
70547;SDS011;58099;43.406;3.698;2022-09-02T14:48:53;6.50;;;2.47;;
70547;SDS011;58099;43.406;3.698;2022-09-02T14:51:20;7.30;;;2.60;;
70547;SDS011;58099;43.406;3.698;2022-09-02T14:53:46;7.22;;;2.45;;
70547;SDS011;58099;43.406;3.698;2022-09-02T14:56:12;6.65;;;2.35;;
70547;SDS011;58099;43.406;3.698;2022-09-02T14:58:38;7.93;;;2.22;;
70547;SDS011;58099;43.406;3.698;2022-09-02T15:01:04;8.68;;;2.40;;
70547;SDS011;58099;43.406;3.698;2022-09-02T15:03:35;6.27;;;2.20;;
70547;SDS011;58099;43.406;3.698;2022-09-02T15:06:01;6.68;;;2.10;;
70547;SDS011;58099;43.406;3.698;2022-09-02T15:08:27;7.45;;;1.48;;
70547;SDS011;58099;43.406;3.698;2022-09-02T15:10:53;5.00;;;1.23;;
70547;SDS011;58099;43.406;3.698;2022-09-02T15:15:51;10.00;;;1.70;;
70547;SDS011;58099;43.406;3.698;2022-09-02T15:18:19;12.23;;;1.90;;
70547;SDS011;58099;43.406;3.698;2022-09-02T15:20:46;10.02;;;2.05;;
70547;SDS011;58099;43.406;3.698;2022-09-02T15:23:12;7.88;;;1.58;;
70547;SDS011;58099;43.406;3.698;2022-09-02T15:25:39;7.53;;;1.60;;
70547;SDS011;58099;43.406;3.698;2022-09-02T15:28:05;8.63;;;1.73;;
70547;SDS011;58099;43.406;3.698;2022-09-02T15:30:32;6.00;;;1.55;;
70547;SDS011;58099;43.406;3.698;2022-09-02T15:33:06;9.25;;;1.85;;
70547;SDS011;58099;43.406;3.698;2022-09-02T15:35:32;10.27;;;1.90;;
70547;SDS011;58099;43.406;3.698;2022-09-02T15:37:59;9.75;;;2.50;;
70547;SDS011;58099;43.406;3.698;2022-09-02T15:40:26;8.47;;;2.17;;
70547;SDS011;58099;43.406;3.698;2022-09-02T15:42:53;10.77;;;2.10;;
70547;SDS011;58099;43.406;3.698;2022-09-02T15:45:20;8.02;;;2.03;;
70547;SDS011;58099;43.406;3.698;2022-09-02T15:47:46;10.55;;;2.28;;
70547;SDS011;58099;43.406;3.698;2022-09-02T15:50:12;10.48;;;2.13;;
70547;SDS011;58099;43.406;3.698;2022-09-02T15:52:39;9.07;;;2.03;;
70547;SDS011;58099;43.406;3.698;2022-09-02T15:55:05;10.68;;;2.22;;
70547;SDS011;58099;43.406;3.698;2022-09-02T15:57:31;14.88;;;2.70;;
70547;SDS011;58099;43.406;3.698;2022-09-02T15:59:57;9.45;;;2.08;;
70547;SDS011;58099;43.406;3.698;2022-09-02T16:02:24;14.98;;;3.17;;
70547;SDS011;58099;43.406;3.698;2022-09-02T16:04:50;16.77;;;2.73;;
70547;SDS011;58099;43.406;3.698;2022-09-02T16:07:16;15.80;;;2.78;;
70547;SDS011;58099;43.406;3.698;2022-09-02T16:09:42;16.52;;;2.58;;
70547;SDS011;58099;43.406;3.698;2022-09-02T16:12:08;13.30;;;2.35;;
70547;SDS011;58099;43.406;3.698;2022-09-02T16:14:35;19.90;;;5.03;;
70547;SDS011;58099;43.406;3.698;2022-09-02T16:17:01;15.90;;;4.00;;
70547;SDS011;58099;43.406;3.698;2022-09-02T16:19:27;13.55;;;2.63;;
70547;SDS011;58099;43.406;3.698;2022-09-02T16:21:53;11.90;;;2.33;;
70547;SDS011;58099;43.406;3.698;2022-09-02T16:24:20;13.57;;;2.92;;
70547;SDS011;58099;43.406;3.698;2022-09-02T16:26:47;13.57;;;3.80;;
70547;SDS011;58099;43.406;3.698;2022-09-02T16:29:14;15.53;;;7.27;;
70547;SDS011;58099;43.406;3.698;2022-09-02T16:31:44;22.73;;;8.35;;
70547;SDS011;58099;43.406;3.698;2022-09-02T16:34:11;20.00;;;7.35;;
70547;SDS011;58099;43.406;3.698;2022-09-02T16:36:39;17.17;;;8.93;;
70547;SDS011;58099;43.406;3.698;2022-09-02T16:39:05;20.63;;;9.38;;
70547;SDS011;58099;43.406;3.698;2022-09-02T16:41:33;21.33;;;6.80;;
70547;SDS011;58099;43.406;3.698;2022-09-02T16:44:00;21.77;;;4.55;;
70547;SDS011;58099;43.406;3.698;2022-09-02T16:46:27;20.73;;;3.90;;
70547;SDS011;58099;43.406;3.698;2022-09-02T16:48:53;15.98;;;3.38;;
70547;SDS011;58099;43.406;3.698;2022-09-02T16:51:23;17.30;;;3.42;;